sensor_id;sensor_type;location;lat;lon;timestamp;temperature;humidity
12833;DHT22;6483;51.310;4.462;2023-07-13T02:49:02;27.10;1.00
12833;DHT22;6483;51.310;4.462;2023-07-13T02:51:29;16.00;99.90
12833;DHT22;6483;51.310;4.462;2023-07-13T02:53:55;15.90;99.90
12833;DHT22;6483;51.310;4.462;2023-07-13T02:56:24;15.90;99.90
12833;DHT22;6483;51.310;4.462;2023-07-13T02:58:50;15.90;99.90
12833;DHT22;6483;51.310;4.462;2023-07-13T03:01:15;15.80;99.90
12833;DHT22;6483;51.310;4.462;2023-07-13T03:03:48;15.80;99.90
12833;DHT22;6483;51.310;4.462;2023-07-13T03:06:14;15.70;99.90
12833;DHT22;6483;51.310;4.462;2023-07-13T03:08:44;15.70;99.90
12833;DHT22;6483;51.310;4.462;2023-07-13T03:11:17;15.80;99.90
12833;DHT22;6483;51.310;4.462;2023-07-13T03:13:46;15.70;99.90
12833;DHT22;6483;51.310;4.462;2023-07-13T03:16:15;15.60;99.90
12833;DHT22;6483;51.310;4.462;2023-07-13T03:18:42;15.60;99.90
12833;DHT22;6483;51.310;4.462;2023-07-13T03:21:08;15.70;99.90
12833;DHT22;6483;51.310;4.462;2023-07-13T03:23:37;15.70;99.90
12833;DHT22;6483;51.310;4.462;2023-07-13T03:28:32;15.70;99.90
12833;DHT22;6483;51.310;4.462;2023-07-13T03:31:07;15.80;99.90
12833;DHT22;6483;51.310;4.462;2023-07-13T03:33:37;15.80;99.90
12833;DHT22;6483;51.310;4.462;2023-07-13T03:36:05;15.80;99.90
12833;DHT22;6483;51.310;4.462;2023-07-13T03:38:34;15.80;99.90
12833;DHT22;6483;51.310;4.462;2023-07-13T03:41:00;15.80;99.90
12833;DHT22;6483;51.310;4.462;2023-07-13T03:43:26;15.80;99.90
12833;DHT22;6483;51.310;4.462;2023-07-13T03:45:52;15.80;99.90
12833;DHT22;6483;51.310;4.462;2023-07-13T03:48:21;15.80;99.90
12833;DHT22;6483;51.310;4.462;2023-07-13T03:50:47;15.80;99.90
12833;DHT22;6483;51.310;4.462;2023-07-13T03:53:15;15.90;99.90
12833;DHT22;6483;51.310;4.462;2023-07-13T03:55:40;15.90;99.90
12833;DHT22;6483;51.310;4.462;2023-07-13T04:00:52;15.90;99.90
12833;DHT22;6483;51.310;4.462;2023-07-13T04:03:17;15.80;99.90
12833;DHT22;6483;51.310;4.462;2023-07-13T04:05:43;15.80;99.90
12833;DHT22;6483;51.310;4.462;2023-07-13T04:08:09;15.80;99.90
12833;DHT22;6483;51.310;4.462;2023-07-13T04:10:37;15.90;99.90
12833;DHT22;6483;51.310;4.462;2023-07-13T04:13:04;15.90;99.90
12833;DHT22;6483;51.310;4.462;2023-07-13T04:15:32;15.90;99.90
12833;DHT22;6483;51.310;4.462;2023-07-13T04:18:01;16.00;99.90
12833;DHT22;6483;51.310;4.462;2023-07-13T04:20:29;16.00;99.90
12833;DHT22;6483;51.310;4.462;2023-07-13T04:23:13;16.00;99.90
12833;DHT22;6483;51.310;4.462;2023-07-13T04:25:42;15.90;99.90
12833;DHT22;6483;51.310;4.462;2023-07-13T04:28:11;16.00;99.90
12833;DHT22;6483;51.310;4.462;2023-07-13T04:30:37;16.10;99.90
12833;DHT22;6483;51.310;4.462;2023-07-13T04:33:05;16.00;99.90
12833;DHT22;6483;51.310;4.462;2023-07-13T04:35:34;16.10;99.90
12833;DHT22;6483;51.310;4.462;2023-07-13T04:38:00;16.00;99.90
12833;DHT22;6483;51.310;4.462;2023-07-13T04:40:27;16.10;99.90
12833;DHT22;6483;51.310;4.462;2023-07-13T04:42:53;16.10;99.90
12833;DHT22;6483;51.310;4.462;2023-07-13T04:45:19;16.10;99.90
12833;DHT22;6483;51.310;4.462;2023-07-13T04:47:48;16.20;99.90
12833;DHT22;6483;51.310;4.462;2023-07-13T04:50:14;16.20;99.90
12833;DHT22;6483;51.310;4.462;2023-07-13T04:52:47;16.10;99.90
12833;DHT22;6483;51.310;4.462;2023-07-13T04:55:13;16.20;99.90
12833;DHT22;6483;51.310;4.462;2023-07-13T04:57:38;16.20;99.90
12833;DHT22;6483;51.310;4.462;2023-07-13T05:00:05;16.20;99.90
12833;DHT22;6483;51.310;4.462;2023-07-13T05:02:30;16.20;99.90
12833;DHT22;6483;51.310;4.462;2023-07-13T05:04:57;16.30;99.90
12833;DHT22;6483;51.310;4.462;2023-07-13T05:07:24;16.40;99.90
12833;DHT22;6483;51.310;4.462;2023-07-13T05:09:54;16.50;99.90
12833;DHT22;6483;51.310;4.462;2023-07-13T05:12:20;16.60;99.90
12833;DHT22;6483;51.310;4.462;2023-07-13T05:14:52;16.60;99.90
12833;DHT22;6483;51.310;4.462;2023-07-13T05:17:20;16.60;99.90
12833;DHT22;6483;51.310;4.462;2023-07-13T05:19:46;16.60;99.90
12833;DHT22;6483;51.310;4.462;2023-07-13T05:22:15;16.70;99.90
12833;DHT22;6483;51.310;4.462;2023-07-13T05:24:41;15.60;99.90
12833;DHT22;6483;51.310;4.462;2023-07-13T05:27:07;16.90;99.90
12833;DHT22;6483;51.310;4.462;2023-07-13T05:29:35;17.00;99.90
12833;DHT22;6483;51.310;4.462;2023-07-13T05:32:01;17.20;99.90
12833;DHT22;6483;51.310;4.462;2023-07-13T05:34:27;17.20;99.90
12833;DHT22;6483;51.310;4.462;2023-07-13T05:36:53;17.10;99.90
12833;DHT22;6483;51.310;4.462;2023-07-13T05:39:18;17.10;99.90
12833;DHT22;6483;51.310;4.462;2023-07-13T05:41:44;17.00;99.90
12833;DHT22;6483;51.310;4.462;2023-07-13T05:44:13;17.00;99.90
12833;DHT22;6483;51.310;4.462;2023-07-13T05:46:39;16.90;99.90
12833;DHT22;6483;51.310;4.462;2023-07-13T05:49:04;16.90;99.90
12833;DHT22;6483;51.310;4.462;2023-07-13T05:51:30;16.90;99.90
12833;DHT22;6483;51.310;4.462;2023-07-13T05:53:57;17.00;99.90
12833;DHT22;6483;51.310;4.462;2023-07-13T05:56:26;17.00;99.90
12833;DHT22;6483;51.310;4.462;2023-07-13T05:58:52;17.00;99.90
12833;DHT22;6483;51.310;4.462;2023-07-13T06:01:24;17.20;99.90
12833;DHT22;6483;51.310;4.462;2023-07-13T06:03:53;17.30;99.90
12833;DHT22;6483;51.310;4.462;2023-07-13T06:06:21;17.20;99.90
12833;DHT22;6483;51.310;4.462;2023-07-13T06:08:49;17.20;99.90
12833;DHT22;6483;51.310;4.462;2023-07-13T06:11:21;17.30;99.90
12833;DHT22;6483;51.310;4.462;2023-07-13T06:13:48;17.40;99.90
12833;DHT22;6483;51.310;4.462;2023-07-13T06:16:15;17.40;99.90
12833;DHT22;6483;51.310;4.462;2023-07-13T06:18:41;17.40;99.90
12833;DHT22;6483;51.310;4.462;2023-07-13T06:21:13;17.50;99.90
12833;DHT22;6483;51.310;4.462;2023-07-13T06:23:46;17.40;99.90
12833;DHT22;6483;51.310;4.462;2023-07-13T06:26:16;17.40;99.90
12833;DHT22;6483;51.310;4.462;2023-07-13T06:28:42;17.40;99.90
12833;DHT22;6483;51.310;4.462;2023-07-13T06:31:10;17.50;99.90
12833;DHT22;6483;51.310;4.462;2023-07-13T06:33:37;17.60;99.90
12833;DHT22;6483;51.310;4.462;2023-07-13T06:36:08;17.70;99.90
12833;DHT22;6483;51.310;4.462;2023-07-13T06:38:34;17.90;99.90
12833;DHT22;6483;51.310;4.462;2023-07-13T06:41:01;18.10;99.90
12833;DHT22;6483;51.310;4.462;2023-07-13T06:43:29;18.20;99.90
12833;DHT22;6483;51.310;4.462;2023-07-13T06:45:57;18.20;99.90
12833;DHT22;6483;51.310;4.462;2023-07-13T06:48:30;18.20;99.90
12833;DHT22;6483;51.310;4.462;2023-07-13T06:50:56;18.30;99.90
12833;DHT22;6483;51.310;4.462;2023-07-13T06:53:22;18.30;99.90
12833;DHT22;6483;51.310;4.462;2023-07-13T06:55:48;18.50;99.90
12833;DHT22;6483;51.310;4.462;2023-07-13T06:58:19;18.40;99.90
12833;DHT22;6483;51.310;4.462;2023-07-13T07:00:46;18.40;99.90
12833;DHT22;6483;51.310;4.462;2023-07-13T07:03:12;18.50;99.90
12833;DHT22;6483;51.310;4.462;2023-07-13T07:05:37;18.60;99.90
12833;DHT22;6483;51.310;4.462;2023-07-13T07:08:04;18.80;99.90
12833;DHT22;6483;51.310;4.462;2023-07-13T07:10:34;19.10;99.90
12833;DHT22;6483;51.310;4.462;2023-07-13T07:13:00;19.10;95.70
12833;DHT22;6483;51.310;4.462;2023-07-13T07:15:26;19.00;99.80
12833;DHT22;6483;51.310;4.462;2023-07-13T07:17:52;19.00;99.90
12833;DHT22;6483;51.310;4.462;2023-07-13T07:20:18;18.90;99.90
12833;DHT22;6483;51.310;4.462;2023-07-13T07:22:44;18.90;99.90
12833;DHT22;6483;51.310;4.462;2023-07-13T07:25:12;19.00;99.90
12833;DHT22;6483;51.310;4.462;2023-07-13T07:27:38;19.10;99.90
12833;DHT22;6483;51.310;4.462;2023-07-13T07:30:10;19.10;96.80
12833;DHT22;6483;51.310;4.462;2023-07-13T07:32:36;19.10;97.10
12833;DHT22;6483;51.310;4.462;2023-07-13T07:35:01;19.10;99.90
12833;DHT22;6483;51.310;4.462;2023-07-13T07:37:30;19.30;96.40
12833;DHT22;6483;51.310;4.462;2023-07-13T07:39:58;19.40;90.00
12833;DHT22;6483;51.310;4.462;2023-07-13T07:42:25;19.50;96.50
12833;DHT22;6483;51.310;4.462;2023-07-13T07:44:50;19.70;84.30
12833;DHT22;6483;51.310;4.462;2023-07-13T07:47:19;19.90;66.00
12833;DHT22;6483;51.310;4.462;2023-07-13T07:49:45;19.60;58.60
12833;DHT22;6483;51.310;4.462;2023-07-13T07:52:14;19.40;39.40
12833;DHT22;6483;51.310;4.462;2023-07-13T07:54:40;17.50;57.70
12833;DHT22;6483;51.310;4.462;2023-07-13T07:57:07;19.40;58.70
12833;DHT22;6483;51.310;4.462;2023-07-13T07:59:34;19.60;58.30
12833;DHT22;6483;51.310;4.462;2023-07-13T08:02:02;19.60;54.50
12833;DHT22;6483;51.310;4.462;2023-07-13T08:04:28;19.70;54.20
12833;DHT22;6483;51.310;4.462;2023-07-13T08:07:18;19.80;34.60
12833;DHT22;6483;51.310;4.462;2023-07-13T08:09:43;19.80;37.20
12833;DHT22;6483;51.310;4.462;2023-07-13T08:12:12;19.90;39.50
12833;DHT22;6483;51.310;4.462;2023-07-13T08:14:38;20.00;24.70
12833;DHT22;6483;51.310;4.462;2023-07-13T08:17:04;20.00;20.10
12833;DHT22;6483;51.310;4.462;2023-07-13T08:19:30;20.10;18.40
12833;DHT22;6483;51.310;4.462;2023-07-13T08:21:56;20.00;15.40
12833;DHT22;6483;51.310;4.462;2023-07-13T08:24:28;20.00;25.10
12833;DHT22;6483;51.310;4.462;2023-07-13T08:26:59;20.00;13.90
12833;DHT22;6483;51.310;4.462;2023-07-13T08:29:29;19.90;24.20
12833;DHT22;6483;51.310;4.462;2023-07-13T08:31:58;19.70;29.40
12833;DHT22;6483;51.310;4.462;2023-07-13T08:34:24;20.30;32.40
12833;DHT22;6483;51.310;4.462;2023-07-13T08:36:53;21.30;1.00
12833;DHT22;6483;51.310;4.462;2023-07-13T08:39:21;21.30;1.00
12833;DHT22;6483;51.310;4.462;2023-07-13T08:41:52;21.20;1.00
12833;DHT22;6483;51.310;4.462;2023-07-13T08:44:27;21.10;1.00
12833;DHT22;6483;51.310;4.462;2023-07-13T08:47:00;21.50;1.00
12833;DHT22;6483;51.310;4.462;2023-07-13T08:49:26;21.50;1.00
12833;DHT22;6483;51.310;4.462;2023-07-13T08:52:06;21.60;1.00
12833;DHT22;6483;51.310;4.462;2023-07-13T08:54:45;21.10;1.00
12833;DHT22;6483;51.310;4.462;2023-07-13T08:57:18;20.90;1.00
12833;DHT22;6483;51.310;4.462;2023-07-13T08:59:48;21.00;1.00
12833;DHT22;6483;51.310;4.462;2023-07-13T09:02:52;21.20;1.00
12833;DHT22;6483;51.310;4.462;2023-07-13T09:05:33;21.60;1.00
12833;DHT22;6483;51.310;4.462;2023-07-13T09:08:25;22.00;1.00
12833;DHT22;6483;51.310;4.462;2023-07-13T09:11:14;21.70;1.00
12833;DHT22;6483;51.310;4.462;2023-07-13T09:16:09;20.00;55.40
12833;DHT22;6483;51.310;4.462;2023-07-13T09:18:46;19.20;99.90
12833;DHT22;6483;51.310;4.462;2023-07-13T09:21:23;18.80;99.90
12833;DHT22;6483;51.310;4.462;2023-07-13T09:23:54;18.70;99.90
12833;DHT22;6483;51.310;4.462;2023-07-13T09:26:23;18.90;99.90
12833;DHT22;6483;51.310;4.462;2023-07-13T09:29:26;19.80;99.90
12833;DHT22;6483;51.310;4.462;2023-07-13T09:31:55;20.10;92.70
12833;DHT22;6483;51.310;4.462;2023-07-13T09:34:21;19.80;77.80
12833;DHT22;6483;51.310;4.462;2023-07-13T09:36:46;19.70;99.70
12833;DHT22;6483;51.310;4.462;2023-07-13T09:39:25;20.20;90.10
12833;DHT22;6483;51.310;4.462;2023-07-13T09:44:38;21.30;1.00
12833;DHT22;6483;51.310;4.462;2023-07-13T09:47:17;22.80;1.00
12833;DHT22;6483;51.310;4.462;2023-07-13T09:49:43;22.90;1.00
12833;DHT22;6483;51.310;4.462;2023-07-13T09:52:15;22.30;1.00
12833;DHT22;6483;51.310;4.462;2023-07-13T09:54:51;21.70;1.00
12833;DHT22;6483;51.310;4.462;2023-07-13T09:57:23;21.20;1.00
12833;DHT22;6483;51.310;4.462;2023-07-13T09:59:51;21.20;1.00
12833;DHT22;6483;51.310;4.462;2023-07-13T10:02:34;22.00;1.00
12833;DHT22;6483;51.310;4.462;2023-07-13T10:05:20;23.40;1.00
12833;DHT22;6483;51.310;4.462;2023-07-13T10:07:47;24.20;1.00
12833;DHT22;6483;51.310;4.462;2023-07-13T10:10:16;23.20;1.00
12833;DHT22;6483;51.310;4.462;2023-07-13T10:12:43;22.70;1.00
12833;DHT22;6483;51.310;4.462;2023-07-13T10:15:36;23.60;1.00
12833;DHT22;6483;51.310;4.462;2023-07-13T10:18:02;24.50;1.00
12833;DHT22;6483;51.310;4.462;2023-07-13T10:20:27;25.10;1.00
12833;DHT22;6483;51.310;4.462;2023-07-13T10:23:02;25.60;1.00
12833;DHT22;6483;51.310;4.462;2023-07-13T10:25:36;26.10;1.00
12833;DHT22;6483;51.310;4.462;2023-07-13T10:30:53;25.50;1.00
12833;DHT22;6483;51.310;4.462;2023-07-13T10:33:19;24.90;1.00
12833;DHT22;6483;51.310;4.462;2023-07-13T10:35:47;24.30;1.00
12833;DHT22;6483;51.310;4.462;2023-07-13T10:38:23;23.60;1.00
12833;DHT22;6483;51.310;4.462;2023-07-13T10:41:01;23.40;1.00
12833;DHT22;6483;51.310;4.462;2023-07-13T10:43:37;23.10;1.00
12833;DHT22;6483;51.310;4.462;2023-07-13T10:46:07;22.90;1.00
12833;DHT22;6483;51.310;4.462;2023-07-13T10:48:35;22.80;1.00
12833;DHT22;6483;51.310;4.462;2023-07-13T10:51:06;22.70;1.00
12833;DHT22;6483;51.310;4.462;2023-07-13T10:53:37;22.50;1.00
12833;DHT22;6483;51.310;4.462;2023-07-13T10:56:29;22.30;1.00
12833;DHT22;6483;51.310;4.462;2023-07-13T10:59:17;22.50;1.00
12833;DHT22;6483;51.310;4.462;2023-07-13T11:01:56;22.70;1.00
12833;DHT22;6483;51.310;4.462;2023-07-13T11:04:39;22.90;1.00
12833;DHT22;6483;51.310;4.462;2023-07-13T11:07:16;22.80;1.00
12833;DHT22;6483;51.310;4.462;2023-07-13T11:09:49;22.40;1.00
12833;DHT22;6483;51.310;4.462;2023-07-13T11:15:05;22.10;1.00
12833;DHT22;6483;51.310;4.462;2023-07-13T11:17:54;22.30;1.00
12833;DHT22;6483;51.310;4.462;2023-07-13T11:20:37;22.60;1.00
12833;DHT22;6483;51.310;4.462;2023-07-13T11:23:28;22.30;1.00
12833;DHT22;6483;51.310;4.462;2023-07-13T11:25:55;21.70;1.00
12833;DHT22;6483;51.310;4.462;2023-07-13T11:28:25;21.20;1.00
12833;DHT22;6483;51.310;4.462;2023-07-13T11:33:25;20.50;1.00
12833;DHT22;6483;51.310;4.462;2023-07-13T11:36:18;20.50;1.00
12833;DHT22;6483;51.310;4.462;2023-07-13T11:41:37;21.00;1.00
12833;DHT22;6483;51.310;4.462;2023-07-13T11:44:18;21.10;1.00
12833;DHT22;6483;51.310;4.462;2023-07-13T11:46:46;20.50;1.00
12833;DHT22;6483;51.310;4.462;2023-07-13T11:49:16;19.90;3.30
12833;DHT22;6483;51.310;4.462;2023-07-13T11:51:49;19.60;37.30
12833;DHT22;6483;51.310;4.462;2023-07-13T11:54:29;19.40;12.20
12833;DHT22;6483;51.310;4.462;2023-07-13T11:57:17;19.50;33.10
12833;DHT22;6483;51.310;4.462;2023-07-13T11:59:45;19.60;14.80
12833;DHT22;6483;51.310;4.462;2023-07-13T12:02:34;19.50;1.00
12833;DHT22;6483;51.310;4.462;2023-07-13T12:05:02;19.50;1.00
12833;DHT22;6483;51.310;4.462;2023-07-13T12:07:32;19.60;1.00
12833;DHT22;6483;51.310;4.462;2023-07-13T12:12:37;19.70;1.00
12833;DHT22;6483;51.310;4.462;2023-07-13T12:15:07;20.00;1.00
12833;DHT22;6483;51.310;4.462;2023-07-13T12:17:34;20.20;1.00
12833;DHT22;6483;51.310;4.462;2023-07-13T12:20:25;20.20;1.00
12833;DHT22;6483;51.310;4.462;2023-07-13T12:22:51;20.40;1.00
12833;DHT22;6483;51.310;4.462;2023-07-13T12:25:21;20.40;1.00
12833;DHT22;6483;51.310;4.462;2023-07-13T12:27:50;20.60;1.00
12833;DHT22;6483;51.310;4.462;2023-07-13T12:30:30;20.70;1.00
12833;DHT22;6483;51.310;4.462;2023-07-13T12:33:07;20.90;1.00
12833;DHT22;6483;51.310;4.462;2023-07-13T12:35:45;20.80;1.00
12833;DHT22;6483;51.310;4.462;2023-07-13T12:38:16;21.00;1.00
12833;DHT22;6483;51.310;4.462;2023-07-13T12:40:45;21.60;1.00
12833;DHT22;6483;51.310;4.462;2023-07-13T12:43:14;21.70;1.00
12833;DHT22;6483;51.310;4.462;2023-07-13T12:46:05;21.90;1.00
12833;DHT22;6483;51.310;4.462;2023-07-13T12:48:42;22.60;1.00
12833;DHT22;6483;51.310;4.462;2023-07-13T12:51:13;23.10;1.00
12833;DHT22;6483;51.310;4.462;2023-07-13T12:54:06;23.50;1.00
12833;DHT22;6483;51.310;4.462;2023-07-13T12:56:32;23.60;1.00
12833;DHT22;6483;51.310;4.462;2023-07-13T12:59:05;23.40;1.00
12833;DHT22;6483;51.310;4.462;2023-07-13T13:01:37;23.40;1.00
12833;DHT22;6483;51.310;4.462;2023-07-13T13:04:03;23.80;1.00
12833;DHT22;6483;51.310;4.462;2023-07-13T13:06:44;24.10;1.00
12833;DHT22;6483;51.310;4.462;2023-07-13T13:09:13;24.30;1.00
12833;DHT22;6483;51.310;4.462;2023-07-13T13:11:39;24.20;1.00
12833;DHT22;6483;51.310;4.462;2023-07-13T13:14:05;23.90;1.00
12833;DHT22;6483;51.310;4.462;2023-07-13T13:19:26;23.70;1.00
12833;DHT22;6483;51.310;4.462;2023-07-13T13:21:54;23.60;1.00
12833;DHT22;6483;51.310;4.462;2023-07-13T13:24:24;23.30;1.00
12833;DHT22;6483;51.310;4.462;2023-07-13T13:26:55;23.40;1.00
12833;DHT22;6483;51.310;4.462;2023-07-13T13:29:25;23.80;1.00
12833;DHT22;6483;51.310;4.462;2023-07-13T13:31:52;23.50;1.00
12833;DHT22;6483;51.310;4.462;2023-07-13T13:34:20;23.50;1.00
12833;DHT22;6483;51.310;4.462;2023-07-13T13:36:49;23.50;1.00
12833;DHT22;6483;51.310;4.462;2023-07-13T13:39:32;23.40;1.00
12833;DHT22;6483;51.310;4.462;2023-07-13T13:41:59;23.40;1.00
12833;DHT22;6483;51.310;4.462;2023-07-13T13:44:28;23.90;1.00
12833;DHT22;6483;51.310;4.462;2023-07-13T13:46:55;23.60;1.00
12833;DHT22;6483;51.310;4.462;2023-07-13T13:49:27;23.70;1.00
12833;DHT22;6483;51.310;4.462;2023-07-13T13:51:56;23.50;1.00
12833;DHT22;6483;51.310;4.462;2023-07-13T13:54:24;23.40;1.00
12833;DHT22;6483;51.310;4.462;2023-07-13T13:56:53;22.80;1.00
12833;DHT22;6483;51.310;4.462;2023-07-13T13:59:19;22.20;1.00
12833;DHT22;6483;51.310;4.462;2023-07-13T14:01:48;21.90;1.00
12833;DHT22;6483;51.310;4.462;2023-07-13T14:04:17;21.70;21.00
12833;DHT22;6483;51.310;4.462;2023-07-13T14:06:43;21.50;3.60
12833;DHT22;6483;51.310;4.462;2023-07-13T14:09:14;21.30;38.70
12833;DHT22;6483;51.310;4.462;2023-07-13T14:11:44;21.40;48.90
12833;DHT22;6483;51.310;4.462;2023-07-13T14:14:31;21.70;11.40
12833;DHT22;6483;51.310;4.462;2023-07-13T14:16:57;22.70;11.50
12833;DHT22;6483;51.310;4.462;2023-07-13T14:19:26;24.30;1.00
12833;DHT22;6483;51.310;4.462;2023-07-13T14:21:53;24.30;1.00
12833;DHT22;6483;51.310;4.462;2023-07-13T14:24:21;24.10;1.00
12833;DHT22;6483;51.310;4.462;2023-07-13T14:26:47;24.00;1.00
12833;DHT22;6483;51.310;4.462;2023-07-13T14:29:16;24.30;1.00
12833;DHT22;6483;51.310;4.462;2023-07-13T14:31:46;24.30;1.00
12833;DHT22;6483;51.310;4.462;2023-07-13T14:34:13;24.10;1.00
12833;DHT22;6483;51.310;4.462;2023-07-13T14:36:48;25.50;1.00
12833;DHT22;6483;51.310;4.462;2023-07-13T14:39:20;26.00;1.00
12833;DHT22;6483;51.310;4.462;2023-07-13T14:41:53;25.70;1.00
12833;DHT22;6483;51.310;4.462;2023-07-13T14:44:28;26.20;1.00
12833;DHT22;6483;51.310;4.462;2023-07-13T14:46:59;27.10;1.00
12833;DHT22;6483;51.310;4.462;2023-07-13T14:49:32;26.40;1.00
12833;DHT22;6483;51.310;4.462;2023-07-13T14:52:03;25.00;1.00
12833;DHT22;6483;51.310;4.462;2023-07-13T14:54:30;23.80;1.00
12833;DHT22;6483;51.310;4.462;2023-07-13T14:56:59;23.50;1.00
12833;DHT22;6483;51.310;4.462;2023-07-13T14:59:28;23.40;1.00
12833;DHT22;6483;51.310;4.462;2023-07-13T15:01:57;23.80;1.00
12833;DHT22;6483;51.310;4.462;2023-07-13T15:04:23;23.70;1.00
12833;DHT22;6483;51.310;4.462;2023-07-13T15:07:02;23.60;1.00
12833;DHT22;6483;51.310;4.462;2023-07-13T15:09:31;23.40;1.00
12833;DHT22;6483;51.310;4.462;2023-07-13T15:11:58;22.60;1.00
12833;DHT22;6483;51.310;4.462;2023-07-13T15:14:27;21.90;2.20
12833;DHT22;6483;51.310;4.462;2023-07-13T15:16:57;21.00;73.40
12833;DHT22;6483;51.310;4.462;2023-07-13T15:19:25;20.20;99.90
12833;DHT22;6483;51.310;4.462;2023-07-13T15:21:56;19.70;99.90
12833;DHT22;6483;51.310;4.462;2023-07-13T15:24:23;19.40;99.90
12833;DHT22;6483;51.310;4.462;2023-07-13T15:26:55;19.40;99.90
12833;DHT22;6483;51.310;4.462;2023-07-13T15:29:25;20.40;99.90
12833;DHT22;6483;51.310;4.462;2023-07-13T15:31:52;21.40;99.90
12833;DHT22;6483;51.310;4.462;2023-07-13T15:34:22;21.70;99.90
12833;DHT22;6483;51.310;4.462;2023-07-13T15:36:50;21.50;99.90
12833;DHT22;6483;51.310;4.462;2023-07-13T15:39:19;21.30;99.90
12833;DHT22;6483;51.310;4.462;2023-07-13T15:41:48;21.10;99.90
12833;DHT22;6483;51.310;4.462;2023-07-13T15:46:51;21.00;99.90
12833;DHT22;6483;51.310;4.462;2023-07-13T15:49:17;20.60;99.90
12833;DHT22;6483;51.310;4.462;2023-07-13T15:51:45;20.70;99.90
12833;DHT22;6483;51.310;4.462;2023-07-13T15:54:14;21.10;99.90
12833;DHT22;6483;51.310;4.462;2023-07-13T15:56:40;21.00;99.90
12833;DHT22;6483;51.310;4.462;2023-07-13T15:59:10;22.50;99.90
12833;DHT22;6483;51.310;4.462;2023-07-13T16:01:38;24.00;56.60
12833;DHT22;6483;51.310;4.462;2023-07-13T16:04:04;24.70;41.60
12833;DHT22;6483;51.310;4.462;2023-07-13T16:06:36;25.40;1.00
12833;DHT22;6483;51.310;4.462;2023-07-13T16:09:05;25.90;1.00
12833;DHT22;6483;51.310;4.462;2023-07-13T16:11:37;26.60;1.00
12833;DHT22;6483;51.310;4.462;2023-07-13T16:14:06;26.80;1.00
12833;DHT22;6483;51.310;4.462;2023-07-13T16:16:34;26.50;1.00
12833;DHT22;6483;51.310;4.462;2023-07-13T16:19:03;26.20;5.50
12833;DHT22;6483;51.310;4.462;2023-07-13T16:21:32;26.10;9.60
12833;DHT22;6483;51.310;4.462;2023-07-13T16:24:01;25.90;17.00
12833;DHT22;6483;51.310;4.462;2023-07-13T16:29:11;25.30;1.00
12833;DHT22;6483;51.310;4.462;2023-07-13T16:31:37;24.70;1.00
12833;DHT22;6483;51.310;4.462;2023-07-13T16:34:03;24.20;22.40
12833;DHT22;6483;51.310;4.462;2023-07-13T16:36:29;23.70;77.70
12833;DHT22;6483;51.310;4.462;2023-07-13T16:38:59;23.50;68.20
12833;DHT22;6483;51.310;4.462;2023-07-13T16:41:24;23.20;70.90
12833;DHT22;6483;51.310;4.462;2023-07-13T16:43:50;23.10;99.90
12833;DHT22;6483;51.310;4.462;2023-07-13T16:46:21;22.90;99.90
12833;DHT22;6483;51.310;4.462;2023-07-13T16:48:47;22.80;99.90
12833;DHT22;6483;51.310;4.462;2023-07-13T16:51:13;22.60;99.90
12833;DHT22;6483;51.310;4.462;2023-07-13T16:53:38;22.60;99.90
12833;DHT22;6483;51.310;4.462;2023-07-13T16:56:24;22.40;99.20
12833;DHT22;6483;51.310;4.462;2023-07-13T16:58:52;22.40;99.90
12833;DHT22;6483;51.310;4.462;2023-07-13T17:01:18;22.70;99.90
12833;DHT22;6483;51.310;4.462;2023-07-13T17:03:44;23.20;99.90
12833;DHT22;6483;51.310;4.462;2023-07-13T17:06:27;23.60;99.90
12833;DHT22;6483;51.310;4.462;2023-07-13T17:08:54;24.10;36.50
12833;DHT22;6483;51.310;4.462;2023-07-13T17:11:21;24.40;3.00
12833;DHT22;6483;51.310;4.462;2023-07-13T17:13:47;25.40;2.60
12833;DHT22;6483;51.310;4.462;2023-07-13T17:16:16;26.50;1.00
12833;DHT22;6483;51.310;4.462;2023-07-13T17:18:42;27.50;1.00
12833;DHT22;6483;51.310;4.462;2023-07-13T17:21:13;28.20;1.00
12833;DHT22;6483;51.310;4.462;2023-07-13T17:23:43;28.20;1.00
12833;DHT22;6483;51.310;4.462;2023-07-13T17:26:09;28.10;1.00
12833;DHT22;6483;51.310;4.462;2023-07-13T17:28:36;28.40;1.00
12833;DHT22;6483;51.310;4.462;2023-07-13T17:31:02;28.60;1.00
12833;DHT22;6483;51.310;4.462;2023-07-13T17:33:36;28.50;1.00
12833;DHT22;6483;51.310;4.462;2023-07-13T17:36:15;28.30;1.00
12833;DHT22;6483;51.310;4.462;2023-07-13T17:38:46;28.30;1.00
12833;DHT22;6483;51.310;4.462;2023-07-13T17:41:19;27.60;1.00
12833;DHT22;6483;51.310;4.462;2023-07-13T17:43:46;27.00;1.00
12833;DHT22;6483;51.310;4.462;2023-07-13T17:46:21;26.90;1.00
12833;DHT22;6483;51.310;4.462;2023-07-13T17:48:50;26.90;1.00
12833;DHT22;6483;51.310;4.462;2023-07-13T17:51:17;26.90;1.00
12833;DHT22;6483;51.310;4.462;2023-07-13T17:53:45;26.70;1.00
12833;DHT22;6483;51.310;4.462;2023-07-13T17:56:12;26.30;1.00
12833;DHT22;6483;51.310;4.462;2023-07-13T17:58:39;26.00;1.00
12833;DHT22;6483;51.310;4.462;2023-07-13T18:01:27;25.90;1.00
12833;DHT22;6483;51.310;4.462;2023-07-13T18:04:00;25.50;1.00
12833;DHT22;6483;51.310;4.462;2023-07-13T18:06:27;25.00;1.00
12833;DHT22;6483;51.310;4.462;2023-07-13T18:08:56;24.50;1.00
12833;DHT22;6483;51.310;4.462;2023-07-13T18:11:23;24.00;1.00
12833;DHT22;6483;51.310;4.462;2023-07-13T18:13:56;23.50;7.40
12833;DHT22;6483;51.310;4.462;2023-07-13T18:16:29;23.00;24.70
12833;DHT22;6483;51.310;4.462;2023-07-13T18:18:57;22.50;56.60
12833;DHT22;6483;51.310;4.462;2023-07-13T18:21:25;22.00;89.10
12833;DHT22;6483;51.310;4.462;2023-07-13T18:23:52;21.70;99.90
12833;DHT22;6483;51.310;4.462;2023-07-13T18:26:20;21.40;99.90
12833;DHT22;6483;51.310;4.462;2023-07-13T18:28:47;21.10;99.90
12833;DHT22;6483;51.310;4.462;2023-07-13T18:31:20;21.00;99.90
12833;DHT22;6483;51.310;4.462;2023-07-13T18:33:48;20.90;99.90
12833;DHT22;6483;51.310;4.462;2023-07-13T18:36:18;20.50;99.90
12833;DHT22;6483;51.310;4.462;2023-07-13T18:38:44;20.30;99.90
12833;DHT22;6483;51.310;4.462;2023-07-13T18:41:13;20.30;99.90
12833;DHT22;6483;51.310;4.462;2023-07-13T18:43:41;20.20;99.90
12833;DHT22;6483;51.310;4.462;2023-07-13T18:46:17;20.00;99.90
12833;DHT22;6483;51.310;4.462;2023-07-13T18:48:45;19.90;99.90
12833;DHT22;6483;51.310;4.462;2023-07-13T18:51:12;19.90;99.90
12833;DHT22;6483;51.310;4.462;2023-07-13T18:53:39;19.80;99.90
12833;DHT22;6483;51.310;4.462;2023-07-13T18:56:08;19.70;99.90
12833;DHT22;6483;51.310;4.462;2023-07-13T18:58:37;19.70;99.90
12833;DHT22;6483;51.310;4.462;2023-07-13T19:01:12;19.60;99.90
12833;DHT22;6483;51.310;4.462;2023-07-13T19:03:41;19.60;99.90
12833;DHT22;6483;51.310;4.462;2023-07-13T19:06:08;19.40;99.90
12833;DHT22;6483;51.310;4.462;2023-07-13T19:16:05;19.30;99.90
12833;DHT22;6483;51.310;4.462;2023-07-13T19:18:31;19.00;99.90
12833;DHT22;6483;51.310;4.462;2023-07-13T19:20:58;19.00;99.90
12833;DHT22;6483;51.310;4.462;2023-07-13T19:23:38;18.90;99.90
12833;DHT22;6483;51.310;4.462;2023-07-13T19:26:20;19.00;99.90
12833;DHT22;6483;51.310;4.462;2023-07-13T19:28:52;18.90;99.90
12833;DHT22;6483;51.310;4.462;2023-07-13T19:31:27;18.90;99.90
12833;DHT22;6483;51.310;4.462;2023-07-13T19:33:59;18.90;99.90
12833;DHT22;6483;51.310;4.462;2023-07-13T19:36:27;18.80;99.90
12833;DHT22;6483;51.310;4.462;2023-07-13T19:38:56;18.80;99.90